createdAt,value
2019-04-27T00:00:28.520Z,18.90
2019-04-27T00:01:27.855Z,21.40
2019-04-27T00:02:27.823Z,18.50
2019-04-27T00:03:27.812Z,17.80
2019-04-27T00:04:27.920Z,21.10
2019-04-27T00:05:32.502Z,22.10
2019-04-27T00:06:28.782Z,20.70
2019-04-27T00:07:27.778Z,20.20
2019-04-27T00:08:28.477Z,19.20
2019-04-27T00:09:27.754Z,20.20
2019-04-27T00:10:28.672Z,20.90
2019-04-27T00:11:27.724Z,22.80
2019-04-27T00:12:27.724Z,21.90
2019-04-27T00:13:27.704Z,21.30
2019-04-27T00:14:27.693Z,20.70
2019-04-27T00:15:31.288Z,23.10
2019-04-27T00:16:27.685Z,23.30
2019-04-27T00:17:44.860Z,26.30
2019-04-27T00:18:28.648Z,22.10
2019-04-27T00:19:31.758Z,26.70
2019-04-27T00:20:28.637Z,24.90
2019-04-27T00:21:27.636Z,22.20
2019-04-27T00:22:27.615Z,21.00
2019-04-27T00:23:27.601Z,19.90
2019-04-27T00:24:27.586Z,20.30
2019-04-27T00:25:27.586Z,20.20
2019-04-27T00:26:27.591Z,21.60
2019-04-27T00:27:27.559Z,20.20
2019-04-27T00:28:27.545Z,21.90
2019-04-27T00:29:27.534Z,20.60
2019-04-27T00:30:27.534Z,22.60
2019-04-27T00:31:27.518Z,25.20
2019-04-27T00:32:27.505Z,25.50
2019-04-27T00:33:27.594Z,20.50
2019-04-27T00:34:27.479Z,20.10
2019-04-27T00:35:27.478Z,23.20
2019-04-27T00:36:27.470Z,22.20
2019-04-27T00:37:27.446Z,18.70
2019-04-27T00:38:27.437Z,18.90
2019-04-27T00:39:27.422Z,21.40
2019-04-27T00:40:27.512Z,21.50
2019-04-27T00:41:27.407Z,21.00
2019-04-27T00:42:27.407Z,22.90
2019-04-27T00:43:27.398Z,21.00
2019-04-27T00:44:27.372Z,23.70
2019-04-27T00:45:27.392Z,26.10
2019-04-27T00:46:27.347Z,21.90
2019-04-27T00:47:27.339Z,22.70
2019-04-27T00:48:27.328Z,25.20
2019-04-27T00:49:27.333Z,22.10
2019-04-27T00:50:27.325Z,23.30
2019-04-27T00:51:27.296Z,23.50
2019-04-27T00:52:27.287Z,20.90
2019-04-27T00:53:27.286Z,21.80
2019-04-27T00:54:27.260Z,18.00
2019-04-27T00:55:27.289Z,21.20
2019-04-27T00:56:27.248Z,25.00
2019-04-27T00:57:27.232Z,22.40
2019-04-27T00:58:27.228Z,23.20
2019-04-27T00:59:27.222Z,19.70
2019-04-27T01:00:27.211Z,19.20
2019-04-27T01:01:27.190Z,21.20
2019-04-27T01:02:27.207Z,22.50
2019-04-27T01:03:27.177Z,21.80
2019-04-27T01:04:27.162Z,22.10
2019-04-27T01:05:27.154Z,19.20
2019-04-27T01:06:27.177Z,23.00
2019-04-27T01:07:27.128Z,20.40
2019-04-27T01:08:27.114Z,20.50
2019-04-27T01:09:27.170Z,22.20
2019-04-27T01:10:27.091Z,20.30
2019-04-27T01:11:27.082Z,19.30
2019-04-27T01:12:27.072Z,22.20
2019-04-27T01:13:29.264Z,21.90
2019-04-27T01:14:27.059Z,22.20
2019-04-27T01:15:27.044Z,21.90
2019-04-27T01:16:27.188Z,20.50
2019-04-27T01:17:28.809Z,22.10
2019-04-27T01:18:28.484Z,23.40
2019-04-27T01:19:27.012Z,20.10
2019-04-27T01:20:28.400Z,20.50
2019-04-27T01:21:26.984Z,22.60
2019-04-27T01:22:26.973Z,26.40
2019-04-27T01:23:26.963Z,24.90
2019-04-27T01:24:26.965Z,21.80
2019-04-27T01:25:26.932Z,20.10
2019-04-27T01:26:28.582Z,22.90
2019-04-27T01:27:26.919Z,20.40
2019-04-27T01:28:28.952Z,21.60
2019-04-27T01:29:26.890Z,19.40
2019-04-27T01:30:26.887Z,20.60
2019-04-27T01:31:26.879Z,21.50
2019-04-27T01:32:26.934Z,20.00
2019-04-27T01:33:28.326Z,19.40
2019-04-27T01:34:26.851Z,21.40
2019-04-27T01:35:26.826Z,18.90
2019-04-27T01:36:26.841Z,21.70
2019-04-27T01:37:28.435Z,22.10
2019-04-27T01:38:26.807Z,18.50
2019-04-27T01:39:26.783Z,19.80
2019-04-27T01:40:26.770Z,22.00
2019-04-27T01:41:26.782Z,18.90
2019-04-27T01:42:26.750Z,19.80
2019-04-27T01:43:26.742Z,18.80
2019-04-27T01:44:26.737Z,18.90
2019-04-27T01:45:26.717Z,23.20
2019-04-27T01:46:26.745Z,22.30
2019-04-27T01:47:26.701Z,19.60
2019-04-27T01:48:28.248Z,21.50
2019-04-27T01:49:26.674Z,22.90
2019-04-27T01:50:26.724Z,20.10
2019-04-27T01:51:26.661Z,21.00
2019-04-27T01:52:26.776Z,23.00
2019-04-27T01:53:26.632Z,26.00
2019-04-27T01:54:26.623Z,20.90
2019-04-27T01:55:26.686Z,20.80
2019-04-27T01:56:26.602Z,24.30
2019-04-27T01:57:26.603Z,25.20
2019-04-27T01:58:26.578Z,23.90
2019-04-27T01:59:28.272Z,24.40
2019-04-27T02:00:26.558Z,20.60
2019-04-27T02:01:26.585Z,20.40
2019-04-27T02:02:26.571Z,21.20
2019-04-27T02:03:26.524Z,19.50
2019-04-27T02:04:26.521Z,19.60
2019-04-27T02:05:26.503Z,20.70
2019-04-27T02:06:26.491Z,18.90
2019-04-27T02:07:26.492Z,19.90
2019-04-27T02:08:26.513Z,20.20
2019-04-27T02:09:26.462Z,20.00
2019-04-27T02:10:26.456Z,20.20
2019-04-27T02:11:26.439Z,21.90
2019-04-27T02:12:26.437Z,23.50
2019-04-27T02:13:26.420Z,22.30
2019-04-27T02:14:26.410Z,24.90
2019-04-27T02:15:26.430Z,22.80
2019-04-27T02:16:26.384Z,23.50
2019-04-27T02:17:26.393Z,27.20
2019-04-27T02:18:35.626Z,25.40
2019-04-27T02:19:29.214Z,22.00
2019-04-27T02:20:26.352Z,25.00
2019-04-27T02:21:26.363Z,23.20
2019-04-27T02:22:26.337Z,24.10
2019-04-27T02:23:26.316Z,24.70
2019-04-27T02:24:26.303Z,26.50
2019-04-27T02:25:26.291Z,27.20
2019-04-27T02:26:26.287Z,27.30
2019-04-27T02:27:26.275Z,25.60
2019-04-27T02:28:26.426Z,28.30
2019-04-27T02:29:26.244Z,30.90
2019-04-27T02:30:26.238Z,33.00
2019-04-27T02:31:26.236Z,32.70
2019-04-27T02:32:26.247Z,30.10
2019-04-27T02:33:26.216Z,28.40
2019-04-27T02:34:26.194Z,30.30
2019-04-27T02:35:26.240Z,27.10
2019-04-27T02:36:26.174Z,32.30
2019-04-27T02:37:26.162Z,31.30
2019-04-27T02:38:26.163Z,30.40
2019-04-27T02:39:26.146Z,29.30
2019-04-27T02:40:26.129Z,29.40
2019-04-27T02:41:26.143Z,27.60
2019-04-27T02:42:26.702Z,29.20
2019-04-27T02:43:26.111Z,33.00
2019-04-27T02:44:26.103Z,32.20
2019-04-27T02:45:26.077Z,29.70
2019-04-27T02:46:26.068Z,31.50
2019-04-27T02:47:26.056Z,35.20
2019-04-27T02:48:26.063Z,33.30
2019-04-27T02:49:26.041Z,36.20
2019-04-27T02:50:26.040Z,33.90
2019-04-27T02:51:26.013Z,36.90
2019-04-27T02:52:26.005Z,33.00
2019-04-27T02:53:26.007Z,31.10
2019-04-27T02:54:25.980Z,33.40
2019-04-27T02:55:25.973Z,35.10
2019-04-27T02:56:25.955Z,36.50
2019-04-27T02:57:25.943Z,31.70
2019-04-27T02:58:25.945Z,35.00
2019-04-27T02:59:25.928Z,34.80
2019-04-27T03:00:25.922Z,38.70
2019-04-27T03:01:25.903Z,33.10
2019-04-27T03:02:25.892Z,36.30
2019-04-27T03:03:25.933Z,33.50
2019-04-27T03:04:25.885Z,36.30
2019-04-27T03:05:25.874Z,41.40
2019-04-27T03:06:25.849Z,40.40
2019-04-27T03:07:25.843Z,36.00
2019-04-27T03:08:25.834Z,36.90
2019-04-27T03:09:25.818Z,37.50
2019-04-27T03:10:25.820Z,34.30
2019-04-27T03:11:25.840Z,38.70
2019-04-27T03:12:25.787Z,37.50
2019-04-27T03:13:25.794Z,36.60
2019-04-27T03:14:34.889Z,37.90
2019-04-27T03:15:26.745Z,41.60
2019-04-27T03:16:25.740Z,39.10
2019-04-27T03:17:25.735Z,42.70
2019-04-27T03:18:25.850Z,38.40
2019-04-27T03:19:25.706Z,38.30
2019-04-27T03:20:25.690Z,43.70
2019-04-27T03:21:25.679Z,42.50
2019-04-27T03:22:25.680Z,37.10
2019-04-27T03:23:25.672Z,36.80
2019-04-27T03:24:25.683Z,36.90
2019-04-27T03:25:25.736Z,37.50
2019-04-27T03:26:25.628Z,37.70
2019-04-27T03:27:25.617Z,37.10
2019-04-27T03:28:25.640Z,42.10
2019-04-27T03:29:25.617Z,43.20
2019-04-27T03:30:25.591Z,40.00
2019-04-27T03:31:25.575Z,39.30
2019-04-27T03:32:25.569Z,42.10
2019-04-27T03:33:25.577Z,39.70
2019-04-27T03:34:25.554Z,40.70
2019-04-27T03:35:25.595Z,40.40
2019-04-27T03:36:25.541Z,37.80
2019-04-27T03:37:25.508Z,40.10
2019-04-27T03:38:25.507Z,39.70
2019-04-27T03:39:25.493Z,39.50
2019-04-27T03:40:25.470Z,45.10
2019-04-27T03:41:25.480Z,44.60
2019-04-27T03:42:25.457Z,45.60
2019-04-27T03:43:25.445Z,45.90
2019-04-27T03:44:25.443Z,43.60
2019-04-27T03:45:25.418Z,42.00
2019-04-27T03:46:25.415Z,42.70
2019-04-27T03:47:25.422Z,34.60
2019-04-27T03:48:25.387Z,45.80
2019-04-27T03:49:35.071Z,43.00
2019-04-27T03:50:26.374Z,42.40
2019-04-27T03:51:25.373Z,40.00
2019-04-27T03:52:25.348Z,39.30
2019-04-27T03:53:25.336Z,44.50
2019-04-27T03:54:25.383Z,44.70
2019-04-27T03:55:25.308Z,49.00
2019-04-27T03:56:25.302Z,43.70
2019-04-27T03:57:25.312Z,46.50
2019-04-27T03:58:25.299Z,40.90
2019-04-27T03:59:25.274Z,40.50
2019-04-27T04:00:25.266Z,41.80
2019-04-27T04:01:25.335Z,45.60
2019-04-27T04:02:25.237Z,49.00
2019-04-27T04:03:25.250Z,44.20
2019-04-27T04:04:25.243Z,45.80
2019-04-27T04:05:25.204Z,43.70
2019-04-27T04:06:25.189Z,43.10
2019-04-27T04:07:25.179Z,41.60
2019-04-27T04:08:25.273Z,44.60
2019-04-27T04:09:25.179Z,42.20
2019-04-27T04:10:25.161Z,42.60
2019-04-27T04:11:25.146Z,46.60
2019-04-27T04:12:25.137Z,45.10
2019-04-27T04:13:25.122Z,43.00
2019-04-27T04:14:25.139Z,42.90
2019-04-27T04:15:25.138Z,41.70
2019-04-27T04:16:25.086Z,45.00
2019-04-27T04:17:25.077Z,49.70
2019-04-27T04:18:25.074Z,44.20
2019-04-27T04:19:25.064Z,46.60
2019-04-27T04:20:25.048Z,45.00
2019-04-27T04:21:25.037Z,40.80
2019-04-27T04:22:25.032Z,44.50
2019-04-27T04:23:25.007Z,41.20
2019-04-27T04:24:28.426Z,44.40
2019-04-27T04:25:26.003Z,47.30
2019-04-27T04:26:25.001Z,51.70
2019-04-27T04:27:24.961Z,51.00
2019-04-27T04:28:24.951Z,48.20
2019-04-27T04:29:24.948Z,45.00
2019-04-27T04:30:24.954Z,47.80
2019-04-27T04:31:24.924Z,47.70
2019-04-27T04:32:24.908Z,45.20
2019-04-27T04:33:24.895Z,46.30
2019-04-27T04:34:24.947Z,43.60
2019-04-27T04:35:24.876Z,45.10
2019-04-27T04:36:24.869Z,48.00
2019-04-27T04:37:25.072Z,47.40
2019-04-27T04:38:24.851Z,48.40
2019-04-27T04:39:24.830Z,49.50
2019-04-27T04:40:24.828Z,47.50
2019-04-27T04:41:24.810Z,48.90
2019-04-27T04:42:24.807Z,49.50
2019-04-27T04:43:24.783Z,47.70
2019-04-27T04:44:24.851Z,51.60
2019-04-27T04:45:24.774Z,53.30
2019-04-27T04:46:24.757Z,55.10
2019-04-27T04:47:24.762Z,53.10
2019-04-27T04:48:24.760Z,50.70
2019-04-27T04:49:24.725Z,51.80
2019-04-27T04:50:24.721Z,49.80
2019-04-27T04:51:24.729Z,51.50
2019-04-27T04:52:24.688Z,49.30
2019-04-27T04:53:24.682Z,53.80
2019-04-27T04:54:24.943Z,50.60
2019-04-27T04:55:24.678Z,53.40
2019-04-27T04:56:24.649Z,55.40
2019-04-27T04:57:24.651Z,53.60
2019-04-27T04:58:24.622Z,53.20
2019-04-27T04:59:24.639Z,53.70
2019-04-27T05:00:24.632Z,51.30
2019-04-27T05:01:24.624Z,51.30
2019-04-27T05:02:24.617Z,53.40
2019-04-27T05:03:24.618Z,58.50
2019-04-27T05:04:24.567Z,61.50
2019-04-27T05:05:24.549Z,51.80
2019-04-27T05:06:25.578Z,51.70
2019-04-27T05:07:24.533Z,55.00
2019-04-27T05:08:24.521Z,54.60
2019-04-27T05:09:24.506Z,59.10
2019-04-27T05:10:24.498Z,55.40
2019-04-27T05:11:24.505Z,51.80
2019-04-27T05:12:24.479Z,53.40
2019-04-27T05:13:24.484Z,52.00
2019-04-27T05:14:24.459Z,56.60
2019-04-27T05:15:24.455Z,53.00
2019-04-27T05:16:24.439Z,49.30
2019-04-27T05:17:24.427Z,48.40
2019-04-27T05:18:24.454Z,47.90
2019-04-27T05:19:24.414Z,51.70
2019-04-27T05:20:26.409Z,49.90
2019-04-27T05:21:24.380Z,51.80
2019-04-27T05:22:24.375Z,47.60
2019-04-27T05:23:24.374Z,49.20
2019-04-27T05:24:24.360Z,50.00
2019-04-27T05:25:24.384Z,50.90
2019-04-27T05:26:24.364Z,53.20
2019-04-27T05:27:24.366Z,51.10
2019-04-27T05:28:24.379Z,47.60
2019-04-27T05:29:24.384Z,50.70
2019-04-27T05:30:24.291Z,54.30
2019-04-27T05:31:24.273Z,51.50
2019-04-27T05:32:24.264Z,49.70
2019-04-27T05:33:24.249Z,48.90
2019-04-27T05:34:24.263Z,46.50
2019-04-27T05:35:24.232Z,50.10
2019-04-27T05:36:24.230Z,46.80
2019-04-27T05:37:28.034Z,45.50
2019-04-27T05:38:25.209Z,45.70
2019-04-27T05:39:25.001Z,46.30
2019-04-27T05:40:24.186Z,45.40
2019-04-27T05:41:24.163Z,42.50
2019-04-27T05:42:24.193Z,42.80
2019-04-27T05:43:25.620Z,43.70
2019-04-27T05:44:25.140Z,42.00
2019-04-27T05:45:24.119Z,43.60
2019-04-27T05:46:24.148Z,43.50
2019-04-27T05:47:24.110Z,42.10
2019-04-27T05:48:27.725Z,44.40
2019-04-27T05:49:25.091Z,43.50
2019-04-27T05:50:35.576Z,41.10
2019-04-27T05:51:25.078Z,40.30
2019-04-27T05:52:24.054Z,38.50
2019-04-27T05:53:24.043Z,41.60
2019-04-27T05:54:24.068Z,40.80
2019-04-27T05:55:24.015Z,41.10
2019-04-27T05:56:24.228Z,41.50
2019-04-27T05:57:23.994Z,39.60
2019-04-27T05:58:24.078Z,38.50
2019-04-27T05:59:23.971Z,39.00
2019-04-27T06:00:23.964Z,39.20
2019-04-27T06:01:23.997Z,41.90
2019-04-27T06:02:23.940Z,42.30
2019-04-27T06:03:24.014Z,39.00
2019-04-27T06:04:23.916Z,39.90
2019-04-27T06:05:23.907Z,40.60
2019-04-27T06:06:23.896Z,37.70
2019-04-27T06:07:23.889Z,39.90
2019-04-27T06:08:23.872Z,41.30
2019-04-27T06:09:23.859Z,39.60
2019-04-27T06:10:23.854Z,40.10
2019-04-27T06:11:23.837Z,40.90
2019-04-27T06:12:23.832Z,40.00
2019-04-27T06:13:23.822Z,39.40
2019-04-27T06:14:23.812Z,40.20
2019-04-27T06:15:23.796Z,38.00
2019-04-27T06:16:23.798Z,38.20
2019-04-27T06:17:23.783Z,36.60
2019-04-27T06:18:23.887Z,36.60
2019-04-27T06:19:23.794Z,38.90
2019-04-27T06:20:23.767Z,36.90
2019-04-27T06:21:23.747Z,36.90
2019-04-27T06:22:23.721Z,38.30
2019-04-27T06:23:23.711Z,33.80
2019-04-27T06:24:23.696Z,35.30
2019-04-27T06:25:23.748Z,34.60
2019-04-27T06:26:23.678Z,35.40
2019-04-27T06:27:23.726Z,35.20
2019-04-27T06:28:23.664Z,34.90
2019-04-27T06:29:23.660Z,36.90
2019-04-27T06:30:23.633Z,33.40
2019-04-27T06:31:23.627Z,34.10
2019-04-27T06:32:23.797Z,33.00
2019-04-27T06:33:32.076Z,32.10
2019-04-27T06:34:24.591Z,32.00
2019-04-27T06:35:23.583Z,30.90
2019-04-27T06:36:23.585Z,29.60
2019-04-27T06:37:23.609Z,30.70
2019-04-27T06:38:23.558Z,29.50
2019-04-27T06:39:23.549Z,28.90
2019-04-27T06:40:23.531Z,31.80
2019-04-27T06:41:23.524Z,29.00
2019-04-27T06:42:23.524Z,31.60
2019-04-27T06:43:23.534Z,30.50
2019-04-27T06:44:23.486Z,30.30
2019-04-27T06:45:23.504Z,28.80
2019-04-27T06:46:23.475Z,30.40
2019-04-27T06:47:23.672Z,29.90
2019-04-27T06:48:23.464Z,30.90
2019-04-27T06:49:23.431Z,29.50
2019-04-27T06:50:23.489Z,30.60
2019-04-27T06:51:23.411Z,29.70
2019-04-27T06:52:23.400Z,31.20
2019-04-27T06:53:23.397Z,27.10
2019-04-27T06:54:23.385Z,28.10
2019-04-27T06:55:23.377Z,29.50
2019-04-27T06:56:23.358Z,29.00
2019-04-27T07:01:53.818Z,26.80
2019-04-27T07:02:55.328Z,26.10
2019-04-27T07:03:53.803Z,27.50
2019-04-27T07:04:53.785Z,27.20
2019-04-27T07:05:53.777Z,23.80
2019-04-27T07:06:56.131Z,25.80
2019-04-27T07:07:53.755Z,25.20
2019-04-27T07:08:55.249Z,25.50
2019-04-27T07:09:53.734Z,25.30
2019-04-27T07:10:53.722Z,25.20
2019-04-27T07:11:53.725Z,25.80
2019-04-27T07:12:53.856Z,23.60
2019-04-27T07:13:53.696Z,27.20
2019-04-27T07:14:55.096Z,24.70
2019-04-27T07:15:53.673Z,22.90
2019-04-27T07:16:53.666Z,21.90
2019-04-27T07:17:53.649Z,23.00
2019-04-27T07:18:53.653Z,21.50
2019-04-27T07:19:53.700Z,21.80
2019-04-27T07:20:53.616Z,21.50
2019-04-27T07:21:53.605Z,22.10
2019-04-27T07:22:53.607Z,21.90
2019-04-27T07:23:53.586Z,21.20
2019-04-27T07:24:53.588Z,20.30
2019-04-27T07:25:53.563Z,20.10
2019-04-27T07:26:53.552Z,21.30
2019-04-27T07:27:53.556Z,19.20
2019-04-27T07:28:53.539Z,20.10
2019-04-27T07:29:53.765Z,19.40
2019-04-27T07:30:53.519Z,18.70
2019-04-27T07:31:53.501Z,19.30
2019-04-27T07:32:53.548Z,18.10
2019-04-27T07:33:53.522Z,18.00
2019-04-27T07:34:55.287Z,18.00
2019-04-27T07:35:53.462Z,18.70
2019-04-27T07:36:53.444Z,18.00
2019-04-27T07:37:53.437Z,19.70
2019-04-27T07:38:53.431Z,18.60
2019-04-27T07:39:53.417Z,19.60
2019-04-27T07:40:53.402Z,17.70
2019-04-27T07:41:53.394Z,16.60
2019-04-27T07:42:53.381Z,16.50
2019-04-27T07:43:53.377Z,16.90
2019-04-27T07:44:53.358Z,16.80
2019-04-27T07:45:53.359Z,15.80
2019-04-27T07:46:53.352Z,15.50
2019-04-27T07:47:53.329Z,15.60
2019-04-27T07:48:53.446Z,16.90
2019-04-27T07:49:53.303Z,16.30
2019-04-27T07:50:53.290Z,15.80
2019-04-27T07:51:53.281Z,15.70
2019-04-27T07:52:53.278Z,15.10
2019-04-27T07:53:53.266Z,16.00
2019-04-27T07:54:53.283Z,14.50
2019-04-27T07:55:53.238Z,15.80
2019-04-27T07:56:53.232Z,15.10
2019-04-27T07:57:53.213Z,16.00
2019-04-27T07:58:53.246Z,15.70
2019-04-27T07:59:53.191Z,14.00
2019-04-27T08:00:53.180Z,15.10
2019-04-27T08:01:53.169Z,14.70
2019-04-27T08:02:53.219Z,14.20
2019-04-27T08:03:53.170Z,13.90
2019-04-27T08:04:53.137Z,14.50
2019-04-27T08:05:53.125Z,14.70
2019-04-27T08:06:53.114Z,14.10
2019-04-27T08:07:53.106Z,14.30
2019-04-27T08:08:53.098Z,14.40
2019-04-27T08:09:53.121Z,14.20
2019-04-27T08:10:53.082Z,14.00
2019-04-27T08:11:53.064Z,13.50
2019-04-27T08:12:53.051Z,14.30
2019-04-27T08:13:53.041Z,14.20
2019-04-27T08:14:53.030Z,13.70
2019-04-27T08:15:53.024Z,14.60
2019-04-27T08:16:53.007Z,13.50
2019-04-27T08:17:53.012Z,13.60
2019-04-27T08:18:52.985Z,13.90
2019-04-27T08:19:52.980Z,12.70
2019-04-27T08:20:52.962Z,14.50
2019-04-27T08:21:52.954Z,14.30
2019-04-27T08:22:52.958Z,14.60
2019-04-27T08:23:52.930Z,15.30
2019-04-27T08:24:52.931Z,16.20
2019-04-27T08:25:52.923Z,16.60
2019-04-27T08:26:53.082Z,15.80
2019-04-27T08:27:52.911Z,16.90
2019-04-27T08:28:52.877Z,16.80
2019-04-27T08:29:52.907Z,16.00
2019-04-27T08:30:52.993Z,16.00
2019-04-27T08:31:53.030Z,14.70
2019-04-27T08:32:52.900Z,15.10
2019-04-27T08:33:53.060Z,15.80
2019-04-27T08:34:52.840Z,17.40
2019-04-27T08:35:52.821Z,18.50
2019-04-27T08:36:52.979Z,19.80
2019-04-27T08:37:52.885Z,21.30
2019-04-27T08:38:52.844Z,22.60
2019-04-27T08:39:52.854Z,21.60
2019-04-27T08:40:52.804Z,22.90
2019-04-27T08:41:52.757Z,23.60
2019-04-27T08:42:55.497Z,23.20
2019-04-27T08:43:52.834Z,22.30
2019-04-27T08:44:52.713Z,22.40
2019-04-27T08:45:52.788Z,22.40
2019-04-27T08:46:52.797Z,21.20
2019-04-27T08:47:52.798Z,22.30
2019-04-27T08:48:52.939Z,21.50
2019-04-27T08:49:52.666Z,20.80
2019-04-27T08:50:52.665Z,21.90
2019-04-27T08:51:59.088Z,21.00
2019-04-27T08:52:53.620Z,21.20
2019-04-27T08:53:52.613Z,20.70
2019-04-27T08:54:52.603Z,21.30
2019-04-27T08:55:52.826Z,22.00
2019-04-27T08:56:52.615Z,21.40
2019-04-27T08:57:52.562Z,20.40
2019-04-27T08:58:52.552Z,20.20
2019-04-27T08:59:52.561Z,20.70
2019-04-27T09:00:52.536Z,21.00
2019-04-27T09:01:52.554Z,19.90
2019-04-27T09:02:52.507Z,19.40
2019-04-27T09:03:52.497Z,19.70
2019-04-27T09:04:52.501Z,20.50
2019-04-27T09:05:52.477Z,19.60
2019-04-27T09:06:52.466Z,18.20
2019-04-27T09:07:52.489Z,18.10
2019-04-27T09:08:52.481Z,18.00
2019-04-27T09:09:52.450Z,17.60
2019-04-27T09:10:52.424Z,16.60
2019-04-27T09:11:52.411Z,16.40
2019-04-27T09:12:53.645Z,16.80
2019-04-27T09:13:52.389Z,17.30
2019-04-27T09:14:52.403Z,16.60
2019-04-27T09:15:52.372Z,15.00
2019-04-27T09:17:00.011Z,15.50
2019-04-27T09:17:53.352Z,15.10
2019-04-27T09:18:52.337Z,15.90
2019-04-27T09:19:52.329Z,14.40
2019-04-27T09:20:52.318Z,14.10
2019-04-27T09:21:52.355Z,14.90
2019-04-27T09:22:52.294Z,13.70
2019-04-27T09:23:52.298Z,15.30
2019-04-27T09:24:52.276Z,15.20
2019-04-27T09:25:52.265Z,15.00
2019-04-27T09:26:52.258Z,14.50
2019-04-27T09:27:52.246Z,14.80
2019-04-27T09:28:52.330Z,14.50
2019-04-27T09:29:52.218Z,15.00
2019-04-27T09:30:52.222Z,15.00
2019-04-27T09:31:52.198Z,15.90
2019-04-27T09:32:52.198Z,14.60
2019-04-27T09:33:52.184Z,14.70
2019-04-27T09:34:52.173Z,13.90
2019-04-27T09:35:52.171Z,13.80
2019-04-27T09:36:52.154Z,13.70
2019-04-27T09:37:52.158Z,12.00
2019-04-27T09:38:52.125Z,10.50
2019-04-27T09:39:52.114Z,10.30
2019-04-27T09:40:52.113Z,10.10
2019-04-27T09:41:52.122Z,10.70
2019-04-27T09:42:52.082Z,10.40
2019-04-27T09:43:52.068Z,10.60
2019-04-27T09:44:52.060Z,11.40
2019-04-27T09:45:52.057Z,11.50
2019-04-27T09:46:52.048Z,9.40
2019-04-27T09:47:52.026Z,7.90
2019-04-27T09:48:52.014Z,7.00
2019-04-27T09:49:52.006Z,7.30
2019-04-27T09:50:52.007Z,9.40
2019-04-27T09:51:51.983Z,10.70
2019-04-27T09:52:51.971Z,9.90
2019-04-27T09:53:51.960Z,11.10
2019-04-27T09:54:51.950Z,11.80
2019-04-27T09:55:51.952Z,11.40
2019-04-27T09:56:51.929Z,11.20
2019-04-27T09:57:51.960Z,11.70
2019-04-27T09:58:51.907Z,11.10
2019-04-27T09:59:51.903Z,10.30
2019-04-27T10:00:51.934Z,10.40
2019-04-27T10:01:51.875Z,10.60
2019-04-27T10:02:51.866Z,10.90
2019-04-27T10:03:51.854Z,10.10
2019-04-27T10:04:51.896Z,9.80
2019-04-27T10:05:51.845Z,13.20
2019-04-27T10:06:51.835Z,10.10
2019-04-27T10:07:51.811Z,11.30
2019-04-27T10:08:51.817Z,11.40
2019-04-27T10:09:51.790Z,10.00
2019-04-27T10:10:51.780Z,9.60
2019-04-27T10:11:51.773Z,9.30
2019-04-27T10:12:51.756Z,9.70
2019-04-27T10:13:51.745Z,9.50
2019-04-27T10:14:51.750Z,10.10
2019-04-27T10:15:51.754Z,9.70
2019-04-27T10:16:51.719Z,10.30
2019-04-27T10:17:51.714Z,10.90
2019-04-27T10:18:51.766Z,10.10
2019-04-27T10:19:51.682Z,10.80
2019-04-27T10:20:59.718Z,10.80
2019-04-27T10:21:52.677Z,11.00
2019-04-27T10:22:51.749Z,10.20
2019-04-27T10:23:51.638Z,11.10
2019-04-27T10:24:51.631Z,10.30
2019-04-27T10:25:52.434Z,9.90
2019-04-27T10:26:51.613Z,10.10
2019-04-27T10:27:51.596Z,10.50
2019-04-27T10:28:51.589Z,9.70
2019-04-27T10:29:51.574Z,11.00
2019-04-27T10:30:51.564Z,10.00
2019-04-27T10:31:51.557Z,9.80
2019-04-27T10:32:51.544Z,11.00
2019-04-27T10:33:51.534Z,10.00
2019-04-27T10:34:51.522Z,10.20
2019-04-27T10:35:51.512Z,11.60
2019-04-27T10:36:51.512Z,10.70
2019-04-27T10:37:51.489Z,10.10
2019-04-27T10:38:51.479Z,10.30
2019-04-27T10:39:51.469Z,10.30
2019-04-27T10:40:51.457Z,10.20
2019-04-27T10:41:51.453Z,9.20
2019-04-27T10:42:51.436Z,9.00
2019-04-27T10:43:51.427Z,9.30
2019-04-27T10:44:51.413Z,9.00
2019-04-27T10:45:51.405Z,8.20
2019-04-27T10:46:51.409Z,8.20
2019-04-27T10:47:51.430Z,8.60
2019-04-27T10:48:52.388Z,8.80
2019-04-27T10:49:51.366Z,8.30
2019-04-27T10:50:51.349Z,7.50
2019-04-27T10:51:51.348Z,7.10
2019-04-27T10:52:53.677Z,6.30
2019-04-27T10:53:51.368Z,6.30
2019-04-27T10:54:51.891Z,6.40
2019-04-27T10:55:51.351Z,5.90
2019-04-27T10:56:51.560Z,6.10
2019-04-27T10:57:52.086Z,5.40
2019-04-27T10:58:51.315Z,4.90
2019-04-27T10:59:51.432Z,6.30
2019-04-27T11:00:51.242Z,5.60
2019-04-27T11:01:51.436Z,4.80
2019-04-27T11:02:51.418Z,5.50
2019-04-27T11:03:51.277Z,5.40
2019-04-27T11:04:51.199Z,5.20
2019-04-27T11:05:51.195Z,5.10
2019-04-27T11:06:51.178Z,4.80
2019-04-27T11:07:51.178Z,4.20
2019-04-27T11:08:51.191Z,4.60
2019-04-27T11:09:51.151Z,4.00
2019-04-27T11:10:51.136Z,3.90
2019-04-27T11:11:51.127Z,3.80
2019-04-27T11:12:51.119Z,4.10
2019-04-27T11:13:51.107Z,4.10
2019-04-27T11:14:51.096Z,3.60
2019-04-27T11:15:51.087Z,3.50
2019-04-27T11:16:51.081Z,4.10
2019-04-27T11:17:51.075Z,3.50
2019-04-27T11:18:51.057Z,3.60
2019-04-27T11:19:51.058Z,3.80
2019-04-27T11:20:51.038Z,3.20
2019-04-27T11:21:51.026Z,3.40
2019-04-27T11:22:51.031Z,3.10
2019-04-27T11:23:51.014Z,2.60
2019-04-27T11:24:51.010Z,2.60
2019-04-27T11:25:50.987Z,2.80
2019-04-27T11:26:50.977Z,2.90
2019-04-27T11:27:50.978Z,2.60
2019-04-27T11:28:50.959Z,2.40
2019-04-27T11:29:50.951Z,2.80
2019-04-27T11:30:50.943Z,2.70
2019-04-27T11:31:50.937Z,2.20
2019-04-27T11:32:50.922Z,1.80
2019-04-27T11:33:50.917Z,1.50
2019-04-27T11:34:50.903Z,2.10
2019-04-27T11:35:50.889Z,1.70
2019-04-27T11:36:50.885Z,1.70
2019-04-27T11:37:50.960Z,2.20
2019-04-27T11:38:50.864Z,2.50
2019-04-27T11:39:50.849Z,2.30
2019-04-27T11:40:50.863Z,2.10
2019-04-27T11:41:50.832Z,2.00
2019-04-27T11:42:50.823Z,1.70
2019-04-27T11:43:50.816Z,2.10
2019-04-27T11:44:50.931Z,2.20
2019-04-27T11:45:50.787Z,2.20
2019-04-27T11:46:51.024Z,2.10
2019-04-27T11:47:50.770Z,2.40
2019-04-27T11:48:50.759Z,1.70
2019-04-27T11:49:50.806Z,1.60
2019-04-27T11:50:50.741Z,1.80
2019-04-27T11:51:50.727Z,1.40
2019-04-27T11:52:50.713Z,1.20
2019-04-27T11:53:50.711Z,1.20
2019-04-27T11:54:50.692Z,1.50
2019-04-27T11:55:50.693Z,1.30
2019-04-27T11:56:50.670Z,1.60
2019-04-27T11:57:50.659Z,1.30
2019-04-27T11:58:50.665Z,1.40
2019-04-27T11:59:50.638Z,1.40
2019-04-27T12:00:50.630Z,1.20
2019-04-27T12:01:50.622Z,1.20
2019-04-27T12:02:50.611Z,1.10
2019-04-27T12:03:50.610Z,1.50
2019-04-27T12:04:50.587Z,1.40
2019-04-27T12:05:50.585Z,1.40
2019-04-27T12:06:50.567Z,1.60
2019-04-27T12:07:50.553Z,1.30
2019-04-27T12:08:50.549Z,1.60
2019-04-27T12:09:50.531Z,1.30
2019-04-27T12:10:50.520Z,1.70
2019-04-27T12:11:50.511Z,1.60
2019-04-27T12:12:50.498Z,1.70
2019-04-27T12:13:50.519Z,1.60
2019-04-27T12:14:50.477Z,1.60
2019-04-27T12:15:50.498Z,1.40
2019-04-27T12:16:50.455Z,1.40
2019-04-27T12:17:50.449Z,1.50
2019-04-27T12:18:50.436Z,1.30
2019-04-27T12:19:50.423Z,1.30
2019-04-27T12:20:50.414Z,1.70
2019-04-27T12:21:50.401Z,1.20
2019-04-27T12:22:50.394Z,1.40
2019-04-27T12:23:50.416Z,1.60
2019-04-27T12:24:50.371Z,1.40
2019-04-27T12:25:50.362Z,1.20
2019-04-27T12:26:50.372Z,1.60
2019-04-27T12:27:50.364Z,1.40
2019-04-27T12:28:50.339Z,1.20
2019-04-27T12:29:50.321Z,1.30
2019-04-27T12:30:50.456Z,1.00
2019-04-27T12:31:50.302Z,1.40
2019-04-27T12:32:50.288Z,1.30
2019-04-27T12:33:50.287Z,1.20
2019-04-27T12:34:50.392Z,1.40
2019-04-27T12:35:50.277Z,1.30
2019-04-27T12:36:53.070Z,1.10
2019-04-27T12:37:50.232Z,1.30
2019-04-27T12:38:50.233Z,1.20
2019-04-27T12:39:50.212Z,1.10
2019-04-27T12:40:50.345Z,0.90
2019-04-27T12:41:50.248Z,1.20
2019-04-27T12:42:50.181Z,1.20
2019-04-27T12:43:50.193Z,0.90
2019-04-27T12:44:50.160Z,1.60
2019-04-27T12:45:50.175Z,1.40
2019-04-27T12:46:50.140Z,1.30
2019-04-27T12:47:50.128Z,1.40
2019-04-27T12:48:50.119Z,1.40
2019-04-27T12:49:50.122Z,1.20
2019-04-27T12:50:50.095Z,1.50
2019-04-27T12:51:50.084Z,1.70
2019-04-27T12:52:50.073Z,1.70
2019-04-27T12:53:52.805Z,1.90
2019-04-27T12:54:50.055Z,1.70
2019-04-27T12:55:50.048Z,2.10
2019-04-27T12:56:50.039Z,2.10
2019-04-27T12:57:50.038Z,1.80
2019-04-27T12:58:50.010Z,1.90
2019-04-27T12:59:50.005Z,1.80
2019-04-27T13:00:49.988Z,1.80
2019-04-27T13:01:49.997Z,1.50